createdAt,value
2023-04-14T00:03:38.929Z,98547.41
2023-04-14T00:07:43.388Z,98539.59
2023-04-14T00:11:46.582Z,98542.22
2023-04-14T00:15:49.741Z,98540.47
2023-04-14T00:19:52.780Z,98540.53
2023-04-14T00:23:57.760Z,98533.53
2023-04-14T00:28:00.815Z,98542.28
2023-04-14T00:32:04.037Z,98552.78
2023-04-14T00:36:08.533Z,98542.25
2023-04-14T00:40:13.231Z,98544.03
2023-04-14T00:44:16.438Z,98542.31
2023-04-14T00:48:20.364Z,98544.91
2023-04-14T00:52:26.442Z,98530.97
2023-04-14T00:56:32.639Z,98530.97
2023-04-14T01:00:36.482Z,98530.13
2023-04-14T01:04:52.535Z,98528.38
2023-04-14T01:08:58.269Z,98522.28
2023-04-14T01:13:14.296Z,98515.34
2023-04-14T01:17:22.183Z,98521.44
2023-04-14T01:21:31.720Z,98518.84
2023-04-14T01:26:17.015Z,98524.06
2023-04-14T01:30:36.429Z,98523.22
2023-04-14T01:34:49.059Z,98530.22
2023-04-14T01:38:54.248Z,98532.84
2023-04-14T01:43:02.560Z,98535.44
2023-04-14T01:47:08.870Z,98526.69
2023-04-14T01:51:18.307Z,98519.75
2023-04-14T01:55:24.724Z,98507.56
2023-04-14T01:59:29.329Z,98512.81
2023-04-14T02:03:33.832Z,98528.53
2023-04-14T02:07:41.652Z,98533.78
2023-04-14T02:11:47.000Z,98533.84
2023-04-14T02:15:52.300Z,98527.69
2023-04-14T02:19:57.687Z,98527.75
2023-04-14T02:24:02.477Z,98533.84
2023-04-14T02:28:13.316Z,98527.75
2023-04-14T02:32:24.373Z,98511.13
2023-04-14T02:36:33.121Z,98498.91
2023-04-14T02:40:42.090Z,98491.03
2023-04-14T02:44:49.987Z,98491.03
2023-04-14T02:48:55.501Z,98501.53
2023-04-14T02:53:01.089Z,98497.19
2023-04-14T02:57:11.872Z,98489.31
2023-04-14T03:01:20.982Z,98474.47
2023-04-14T03:05:27.613Z,98478.00
2023-04-14T03:09:38.496Z,98475.44
2023-04-14T03:13:45.100Z,98458.00
2023-04-14T03:17:54.090Z,98458.06
2023-04-14T03:22:00.262Z,98454.59
2023-04-14T03:26:05.666Z,98450.28
2023-04-14T03:30:13.730Z,98440.72
2023-04-14T03:34:18.739Z,98437.25
2023-04-14T03:38:29.502Z,98439.91
2023-04-14T03:42:35.830Z,98445.16
2023-04-14T03:46:41.128Z,98447.78
2023-04-14T03:50:46.541Z,98433.84
2023-04-14T03:54:53.489Z,98424.28
2023-04-14T03:58:58.345Z,98414.69
2023-04-14T04:03:04.621Z,98400.75
2023-04-14T04:07:10.582Z,98399.91
2023-04-14T04:11:18.837Z,98389.44
2023-04-14T04:15:23.647Z,98399.03
2023-04-14T04:19:28.242Z,98379.88
2023-04-14T04:23:34.294Z,98373.81
2023-04-14T04:27:38.386Z,98366.84
2023-04-14T04:31:49.601Z,98373.84
2023-04-14T04:35:55.976Z,98361.66
2023-04-14T04:40:03.929Z,98352.06
2023-04-14T04:44:08.252Z,98366.91
2023-04-14T04:48:11.363Z,98362.53
2023-04-14T04:52:19.728Z,98364.28
2023-04-14T04:56:22.814Z,98362.56
2023-04-14T05:00:26.729Z,98379.09
2023-04-14T05:04:29.766Z,98373.88
2023-04-14T05:08:34.243Z,98396.53
2023-04-14T05:12:37.322Z,98398.28
2023-04-14T05:16:40.440Z,98386.97
2023-04-14T05:20:43.385Z,98375.63
2023-04-14T05:24:51.290Z,98384.34
2023-04-14T05:28:54.284Z,98385.22
2023-04-14T05:32:57.430Z,98386.94
2023-04-14T05:37:00.482Z,98381.75
2023-04-14T05:41:05.732Z,98394.81
2023-04-14T05:45:09.919Z,98385.22
2023-04-14T05:49:13.086Z,98392.19
2023-04-14T05:53:16.052Z,98393.06
2023-04-14T05:57:20.516Z,98390.44
2023-04-14T06:01:23.483Z,98398.28
2023-04-14T06:05:26.555Z,98402.63
2023-04-14T06:09:29.538Z,98408.72
2023-04-14T06:13:36.129Z,98405.25
2023-04-14T06:17:39.884Z,98394.81
2023-04-14T06:21:43.146Z,98412.22
2023-04-14T06:25:46.131Z,98401.78
2023-04-14T06:29:51.732Z,98411.34
2023-04-14T06:33:54.693Z,98404.41
2023-04-14T06:37:57.748Z,98389.59
2023-04-14T06:42:01.034Z,98395.69
2023-04-14T06:46:05.903Z,98396.56
2023-04-14T06:50:09.455Z,98393.06
2023-04-14T06:54:12.516Z,98386.13
2023-04-14T06:58:15.583Z,98372.19
2023-04-14T07:02:20.367Z,98373.91
2023-04-14T07:06:24.391Z,98368.72
2023-04-14T07:10:27.628Z,98366.97
2023-04-14T07:14:32.827Z,98371.34
2023-04-14T07:18:37.264Z,98367.84
2023-04-14T07:22:40.740Z,98362.63
2023-04-14T07:26:44.568Z,98365.25
2023-04-14T07:30:47.589Z,98360.00
2023-04-14T07:34:52.432Z,98364.38
2023-04-14T07:38:55.432Z,98353.94
2023-04-14T07:42:59.011Z,98362.63
2023-04-14T07:47:02.279Z,98347.81
2023-04-14T07:51:06.957Z,98354.75
2023-04-14T07:55:10.047Z,98370.44
2023-04-14T07:59:13.161Z,98353.88
2023-04-14T08:03:16.899Z,98355.63
2023-04-14T08:07:21.794Z,98353.88
2023-04-14T08:11:25.060Z,98356.44
2023-04-14T08:15:28.128Z,98352.97
2023-04-14T08:19:33.806Z,98344.28
2023-04-14T08:23:38.319Z,98352.13
2023-04-14T08:27:41.497Z,98353.84
2023-04-14T08:31:44.660Z,98346.84
2023-04-14T08:35:48.951Z,98338.16
2023-04-14T08:40:05.385Z,98333.81
2023-04-14T08:44:09.527Z,98314.66
2023-04-14T08:48:16.109Z,98294.63
2023-04-14T08:52:23.063Z,98273.69
2023-04-14T08:56:32.958Z,98285.88
2023-04-14T09:00:36.024Z,98285.00
2023-04-14T09:04:39.578Z,98291.06
2023-04-14T09:08:42.635Z,98288.44
2023-04-14T09:12:47.219Z,98301.53
2023-04-14T09:16:53.659Z,98311.97
2023-04-14T09:21:51.088Z,98309.38
2023-04-14T09:25:22.420Z,98325.91
2023-04-14T09:29:27.892Z,98333.78
2023-04-14T09:33:31.451Z,98334.66
2023-04-14T09:37:44.440Z,98326.84
2023-04-14T09:41:48.786Z,98323.38
2023-04-14T09:45:53.761Z,98332.09
2023-04-14T09:49:59.190Z,98331.28
2023-04-14T09:54:05.113Z,98340.88
2023-04-14T09:58:11.641Z,98349.56
2023-04-14T10:02:16.506Z,98355.66
2023-04-14T10:06:21.166Z,98354.78
2023-04-14T10:10:25.901Z,98361.72
2023-04-14T10:14:28.882Z,98360.84
2023-04-14T10:18:33.443Z,98365.22
2023-04-14T10:22:37.503Z,98373.91
2023-04-14T10:26:42.827Z,98374.78
2023-04-14T10:30:46.578Z,98373.91
2023-04-14T10:35:01.068Z,98365.19
2023-04-14T10:39:06.235Z,98367.81
2023-04-14T10:43:13.367Z,98372.19
2023-04-14T10:47:24.874Z,98360.00
2023-04-14T10:51:36.413Z,98360.84
2023-04-14T10:55:52.134Z,98351.31
2023-04-14T10:59:57.275Z,98348.69
2023-04-14T11:04:17.462Z,98346.06
2023-04-14T11:08:27.751Z,98359.13
2023-04-14T11:12:31.617Z,98360.84
2023-04-14T11:16:34.880Z,98347.78
2023-04-14T11:20:41.289Z,98353.03
2023-04-14T11:24:45.830Z,98344.34
2023-04-14T11:28:49.038Z,98344.31
2023-04-14T11:32:54.406Z,98337.34
2023-04-14T11:36:57.661Z,98342.59
2023-04-14T11:41:03.020Z,98348.69
2023-04-14T11:45:07.244Z,98347.78
2023-04-14T11:49:10.682Z,98353.00
2023-04-14T11:53:15.036Z,98351.28
2023-04-14T11:57:19.560Z,98353.00
2023-04-14T12:01:24.196Z,98351.31
2023-04-14T12:05:31.264Z,98350.41
2023-04-14T12:09:34.417Z,98350.41
2023-04-14T12:13:42.975Z,98344.34
2023-04-14T12:17:46.257Z,98344.34
2023-04-14T12:21:54.270Z,98348.69
2023-04-14T12:25:57.562Z,98346.06
2023-04-14T12:30:02.061Z,98357.38
2023-04-14T12:34:06.426Z,98350.41
2023-04-14T12:38:13.795Z,98362.56
2023-04-14T12:42:16.784Z,98365.22
2023-04-14T12:46:27.290Z,98360.84
2023-04-14T12:50:32.721Z,98361.69
2023-04-14T12:54:49.990Z,98354.75
2023-04-14T12:58:52.977Z,98356.50
2023-04-14T13:02:57.772Z,98357.34
2023-04-14T13:07:00.888Z,98359.09
2023-04-14T13:11:04.099Z,98344.31
2023-04-14T13:15:08.377Z,98335.63
2023-04-14T13:19:12.828Z,98349.53
2023-04-14T13:23:15.937Z,98342.56
2023-04-14T13:27:19.116Z,98345.16
2023-04-14T13:31:22.411Z,98342.59
2023-04-14T13:35:26.957Z,98339.13
2023-04-14T13:39:30.210Z,98333.91
2023-04-14T13:43:33.477Z,98334.75
2023-04-14T13:47:36.697Z,98328.69
2023-04-14T13:51:42.019Z,98331.28
2023-04-14T13:55:44.982Z,98328.69
2023-04-14T13:59:48.030Z,98319.97
2023-04-14T14:03:51.668Z,98317.38
2023-04-14T14:07:57.053Z,98328.66
2023-04-14T14:12:00.053Z,98326.94
2023-04-14T14:16:03.301Z,98324.31
2023-04-14T14:20:07.584Z,98317.34
2023-04-14T14:24:12.405Z,98328.69
2023-04-14T14:28:15.512Z,98325.19
2023-04-14T14:32:18.732Z,98331.28
2023-04-14T14:36:22.141Z,98330.41
2023-04-14T14:40:26.637Z,98326.06
2023-04-14T14:44:29.609Z,98316.50
2023-04-14T14:48:32.724Z,98326.06
2023-04-14T14:52:35.898Z,98319.97
2023-04-14T14:56:40.364Z,98326.94
2023-04-14T15:00:43.372Z,98324.34
2023-04-14T15:04:47.483Z,98328.69
2023-04-14T15:08:50.591Z,98318.25
2023-04-14T15:12:55.385Z,98325.19
2023-04-14T15:16:58.583Z,98326.06
2023-04-14T15:21:02.061Z,98314.75
2023-04-14T15:25:06.036Z,98310.38
2023-04-14T15:29:10.607Z,98306.06
2023-04-14T15:33:13.740Z,98301.69
2023-04-14T15:37:16.779Z,98305.16
2023-04-14T15:41:19.861Z,98299.09
2023-04-14T15:45:24.778Z,98296.47
2023-04-14T15:49:27.744Z,98297.34
2023-04-14T15:53:30.953Z,98295.63
2023-04-14T15:57:33.961Z,98305.16
2023-04-14T16:01:38.425Z,98299.09
2023-04-14T16:05:41.494Z,98285.19
2023-04-14T16:09:44.585Z,98293.88
2023-04-14T16:13:47.556Z,98286.91
2023-04-14T16:17:52.448Z,98286.91
2023-04-14T16:21:56.919Z,98287.75
2023-04-14T16:26:00.068Z,98283.41
2023-04-14T16:30:03.826Z,98278.19
2023-04-14T16:34:09.093Z,98259.06
2023-04-14T16:38:12.087Z,98247.75
2023-04-14T16:42:18.693Z,98249.47
2023-04-14T16:46:22.135Z,98253.88
2023-04-14T16:50:28.073Z,98241.66
2023-04-14T16:54:31.079Z,98232.94
2023-04-14T16:58:34.254Z,98234.69
2023-04-14T17:02:38.691Z,98228.59
2023-04-14T17:06:43.558Z,98227.72
2023-04-14T17:10:46.634Z,98226.81
2023-04-14T17:14:49.842Z,98224.22
2023-04-14T17:18:53.368Z,98223.34
2023-04-14T17:23:00.213Z,98205.94
2023-04-14T17:27:03.857Z,98195.50
2023-04-14T17:31:13.316Z,98198.09
2023-04-14T17:35:16.544Z,98203.31
2023-04-14T17:39:26.951Z,98199.81
2023-04-14T17:43:30.249Z,98182.38
2023-04-14T17:47:37.753Z,98182.38
2023-04-14T17:51:40.899Z,98176.28
2023-04-14T17:55:45.549Z,98178.00
2023-04-14T17:59:48.623Z,98171.06
2023-04-14T18:03:51.799Z,98174.53
2023-04-14T18:07:55.650Z,98173.69
2023-04-14T18:12:00.208Z,98179.75
2023-04-14T18:16:03.222Z,98165.84
2023-04-14T18:20:07.338Z,98167.53
2023-04-14T18:28:19.518Z,98168.41
2023-04-14T18:32:25.301Z,98167.53
2023-04-14T18:36:28.649Z,98184.06
2023-04-14T18:40:31.656Z,98168.38
2023-04-14T18:44:36.314Z,98159.66
2023-04-14T18:48:40.532Z,98156.16
2023-04-14T18:52:43.612Z,98168.38
2023-04-14T18:56:46.608Z,98169.22
2023-04-14T19:00:51.522Z,98161.38
2023-04-14T19:04:55.090Z,98152.66
2023-04-14T19:08:58.235Z,98162.25
2023-04-14T19:13:01.234Z,98161.38
2023-04-14T19:17:05.683Z,98161.38
2023-04-14T19:21:09.150Z,98161.38
2023-04-14T19:25:12.346Z,98163.94
2023-04-14T19:29:15.580Z,98162.25
2023-04-14T19:33:20.282Z,98154.41
2023-04-14T19:37:23.447Z,98155.28
2023-04-14T19:41:26.615Z,98162.22
2023-04-14T19:45:29.683Z,98157.88
2023-04-14T19:49:34.342Z,98157.84
2023-04-14T19:53:37.560Z,98166.53
2023-04-14T19:57:40.709Z,98156.06
2023-04-14T20:01:44.986Z,98164.72
2023-04-14T20:05:52.843Z,98167.38
2023-04-14T20:09:55.805Z,98165.59
2023-04-14T20:13:58.852Z,98161.22
2023-04-14T20:18:01.887Z,98162.94
2023-04-14T20:22:06.566Z,98157.72
2023-04-14T20:26:11.231Z,98168.16
2023-04-14T20:30:15.289Z,98152.47
2023-04-14T20:34:18.435Z,98159.44
2023-04-14T20:38:23.659Z,98163.75
2023-04-14T20:42:26.738Z,98164.59
2023-04-14T20:46:30.043Z,98164.59
2023-04-14T20:50:33.874Z,98178.53
2023-04-14T20:54:38.326Z,98182.84
2023-04-14T20:58:41.287Z,98181.97
2023-04-14T21:02:44.837Z,98194.16
2023-04-14T21:06:48.005Z,98198.50
2023-04-14T21:11:15.350Z,98201.09
2023-04-14T21:15:42.445Z,98207.19
2023-04-14T21:19:38.743Z,98208.09
2023-04-14T21:23:41.729Z,98206.34
2023-04-14T21:27:46.201Z,98215.94
2023-04-14T21:31:49.257Z,98223.81
2023-04-14T21:35:52.626Z,98223.81
2023-04-14T21:39:58.928Z,98230.78
2023-04-14T21:44:03.578Z,98244.78
2023-04-14T21:48:06.865Z,98243.03
2023-04-14T21:52:10.265Z,98249.16
2023-04-14T21:56:14.493Z,98255.28
2023-04-14T22:00:18.966Z,98264.00
2023-04-14T22:04:32.783Z,98266.63
2023-04-14T22:08:39.719Z,98279.72
2023-04-14T22:12:44.754Z,98282.38
2023-04-14T22:16:49.626Z,98285.00
2023-04-14T22:20:52.647Z,98298.09
2023-04-14T22:24:56.487Z,98300.72
2023-04-14T22:28:59.524Z,98310.31
2023-04-14T22:33:04.007Z,98317.28
2023-04-14T22:37:07.400Z,98320.81
2023-04-14T22:41:10.976Z,98323.44
2023-04-14T22:45:14.600Z,98330.41
2023-04-14T22:49:19.013Z,98336.50
2023-04-14T22:53:22.500Z,98345.19
2023-04-14T22:57:26.625Z,98344.31
2023-04-14T23:01:30.517Z,98348.69
2023-04-14T23:05:35.249Z,98355.63
2023-04-14T23:09:38.226Z,98358.25
2023-04-14T23:13:41.418Z,98363.47
2023-04-14T23:17:44.578Z,98367.81
2023-04-14T23:21:51.079Z,98365.19
2023-04-14T23:25:55.632Z,98365.19
2023-04-14T23:29:58.859Z,98375.63
2023-04-14T23:34:01.847Z,98370.38
2023-04-14T23:38:06.456Z,98372.13
2023-04-14T23:42:09.628Z,98375.59
2023-04-14T23:46:12.780Z,98377.34
2023-04-14T23:50:15.893Z,98379.06
2023-04-14T23:54:20.374Z,98386.03
2023-04-14T23:58:26.836Z,98389.50
